sensor_id;sensor_type;location;lat;lon;timestamp;temperature;humidity
31379;DHT22;61664;48.112;11.662;2022-11-09T00:01:03;10.50;68.00
31379;DHT22;61664;48.112;11.662;2022-11-09T00:03:31;10.50;67.50
31379;DHT22;61664;48.112;11.662;2022-11-09T00:05:59;10.50;68.00
31379;DHT22;61664;48.112;11.662;2022-11-09T00:08:26;10.50;67.90
31379;DHT22;61664;48.112;11.662;2022-11-09T00:10:54;10.50;68.00
31379;DHT22;61664;48.112;11.662;2022-11-09T00:13:21;10.50;67.90
31379;DHT22;61664;48.112;11.662;2022-11-09T00:15:48;10.40;67.80
31379;DHT22;61664;48.112;11.662;2022-11-09T00:18:15;10.50;67.90
31379;DHT22;61664;48.112;11.662;2022-11-09T00:20:42;10.40;67.90
31379;DHT22;61664;48.112;11.662;2022-11-09T00:23:14;10.40;67.90
31379;DHT22;61664;48.112;11.662;2022-11-09T00:25:42;10.30;66.30
31379;DHT22;61664;48.112;11.662;2022-11-09T00:28:08;10.40;68.00
31379;DHT22;61664;48.112;11.662;2022-11-09T00:30:35;10.30;67.90
31379;DHT22;61664;48.112;11.662;2022-11-09T00:33:02;10.30;67.90
31379;DHT22;61664;48.112;11.662;2022-11-09T00:35:29;10.30;68.00
31379;DHT22;61664;48.112;11.662;2022-11-09T00:37:57;10.30;68.00
31379;DHT22;61664;48.112;11.662;2022-11-09T00:40:25;10.30;68.00
31379;DHT22;61664;48.112;11.662;2022-11-09T00:42:52;10.30;68.00
31379;DHT22;61664;48.112;11.662;2022-11-09T00:45:18;10.30;68.00
31379;DHT22;61664;48.112;11.662;2022-11-09T00:47:45;10.30;68.00
31379;DHT22;61664;48.112;11.662;2022-11-09T00:50:12;10.30;67.90
31379;DHT22;61664;48.112;11.662;2022-11-09T00:52:39;10.30;67.80
31379;DHT22;61664;48.112;11.662;2022-11-09T00:55:06;10.20;67.70
31379;DHT22;61664;48.112;11.662;2022-11-09T00:57:33;10.20;67.70
31379;DHT22;61664;48.112;11.662;2022-11-09T01:00:00;10.20;67.70
31379;DHT22;61664;48.112;11.662;2022-11-09T01:02:27;10.30;67.80
31379;DHT22;61664;48.112;11.662;2022-11-09T01:04:54;10.20;67.70
31379;DHT22;61664;48.112;11.662;2022-11-09T01:07:20;10.20;67.70
31379;DHT22;61664;48.112;11.662;2022-11-09T01:09:47;10.20;67.70
31379;DHT22;61664;48.112;11.662;2022-11-09T01:12:14;10.20;67.80
31379;DHT22;61664;48.112;11.662;2022-11-09T01:14:41;10.20;67.90
31379;DHT22;61664;48.112;11.662;2022-11-09T01:17:08;10.20;67.80
31379;DHT22;61664;48.112;11.662;2022-11-09T01:19:35;10.20;67.80
31379;DHT22;61664;48.112;11.662;2022-11-09T01:22:01;10.20;67.70
31379;DHT22;61664;48.112;11.662;2022-11-09T01:24:28;10.20;67.70
31379;DHT22;61664;48.112;11.662;2022-11-09T01:26:56;10.20;67.70
31379;DHT22;61664;48.112;11.662;2022-11-09T01:29:23;10.20;67.70
31379;DHT22;61664;48.112;11.662;2022-11-09T01:31:52;10.20;67.60
31379;DHT22;61664;48.112;11.662;2022-11-09T01:34:20;10.20;67.60
31379;DHT22;61664;48.112;11.662;2022-11-09T01:36:50;10.20;67.60
31379;DHT22;61664;48.112;11.662;2022-11-09T01:39:18;10.10;67.10
31379;DHT22;61664;48.112;11.662;2022-11-09T01:41:46;10.10;67.40
31379;DHT22;61664;48.112;11.662;2022-11-09T01:44:15;10.20;67.50
31379;DHT22;61664;48.112;11.662;2022-11-09T01:46:49;10.10;67.40
31379;DHT22;61664;48.112;11.662;2022-11-09T01:49:42;10.10;67.00
31379;DHT22;61664;48.112;11.662;2022-11-09T01:52:16;10.00;65.30
31379;DHT22;61664;48.112;11.662;2022-11-09T01:54:51;10.10;67.10
31379;DHT22;61664;48.112;11.662;2022-11-09T01:57:37;10.00;66.90
31379;DHT22;61664;48.112;11.662;2022-11-09T02:00:13;10.00;65.80
31379;DHT22;61664;48.112;11.662;2022-11-09T02:02:58;10.00;67.10
31379;DHT22;61664;48.112;11.662;2022-11-09T02:05:32;10.00;65.50
31379;DHT22;61664;48.112;11.662;2022-11-09T02:08:04;9.90;67.30
31379;DHT22;61664;48.112;11.662;2022-11-09T02:11:18;9.90;67.30
31379;DHT22;61664;48.112;11.662;2022-11-09T02:13:51;9.90;65.40
31379;DHT22;61664;48.112;11.662;2022-11-09T02:16:23;9.90;67.30
31379;DHT22;61664;48.112;11.662;2022-11-09T02:18:55;9.80;67.50
31379;DHT22;61664;48.112;11.662;2022-11-09T02:21:25;9.80;67.00
31379;DHT22;61664;48.112;11.662;2022-11-09T02:23:54;9.80;67.40
31379;DHT22;61664;48.112;11.662;2022-11-09T02:26:49;9.80;67.50
31379;DHT22;61664;48.112;11.662;2022-11-09T02:29:30;9.80;66.70
31379;DHT22;61664;48.112;11.662;2022-11-09T02:32:09;9.70;67.10
31379;DHT22;61664;48.112;11.662;2022-11-09T02:34:39;9.70;67.10
31379;DHT22;61664;48.112;11.662;2022-11-09T02:37:06;9.70;67.60
31379;DHT22;61664;48.112;11.662;2022-11-09T02:39:33;9.60;67.50
31379;DHT22;61664;48.112;11.662;2022-11-09T02:42:05;9.70;67.60
31379;DHT22;61664;48.112;11.662;2022-11-09T02:44:44;9.60;67.20
31379;DHT22;61664;48.112;11.662;2022-11-09T02:47:15;9.60;66.90
31379;DHT22;61664;48.112;11.662;2022-11-09T02:49:42;9.60;67.60
31379;DHT22;61664;48.112;11.662;2022-11-09T02:52:09;9.60;67.60
31379;DHT22;61664;48.112;11.662;2022-11-09T02:54:36;9.60;67.60
31379;DHT22;61664;48.112;11.662;2022-11-09T02:57:03;9.60;67.60
31379;DHT22;61664;48.112;11.662;2022-11-09T02:59:30;9.60;67.60
31379;DHT22;61664;48.112;11.662;2022-11-09T03:01:57;9.60;67.60
31379;DHT22;61664;48.112;11.662;2022-11-09T03:04:24;9.50;67.60
31379;DHT22;61664;48.112;11.662;2022-11-09T03:06:51;9.60;68.10
31379;DHT22;61664;48.112;11.662;2022-11-09T03:09:19;9.60;67.70
31379;DHT22;61664;48.112;11.662;2022-11-09T03:11:46;9.50;68.10
31379;DHT22;61664;48.112;11.662;2022-11-09T03:14:12;9.50;67.60
31379;DHT22;61664;48.112;11.662;2022-11-09T03:16:40;9.50;67.70
31379;DHT22;61664;48.112;11.662;2022-11-09T03:19:13;9.60;67.80
31379;DHT22;61664;48.112;11.662;2022-11-09T03:21:40;9.60;67.80
31379;DHT22;61664;48.112;11.662;2022-11-09T03:24:07;9.50;67.70
31379;DHT22;61664;48.112;11.662;2022-11-09T03:26:34;9.60;67.70
31379;DHT22;61664;48.112;11.662;2022-11-09T03:29:01;9.60;67.60
31379;DHT22;61664;48.112;11.662;2022-11-09T03:31:28;9.60;67.60
31379;DHT22;61664;48.112;11.662;2022-11-09T03:33:54;9.60;68.00
31379;DHT22;61664;48.112;11.662;2022-11-09T03:36:21;9.70;67.50
31379;DHT22;61664;48.112;11.662;2022-11-09T03:38:48;9.60;67.50
31379;DHT22;61664;48.112;11.662;2022-11-09T03:41:15;9.60;67.60
31379;DHT22;61664;48.112;11.662;2022-11-09T03:43:42;9.60;67.60
31379;DHT22;61664;48.112;11.662;2022-11-09T03:46:08;9.60;67.50
31379;DHT22;61664;48.112;11.662;2022-11-09T03:48:35;9.60;67.50
31379;DHT22;61664;48.112;11.662;2022-11-09T03:51:02;9.60;67.60
31379;DHT22;61664;48.112;11.662;2022-11-09T03:53:29;9.60;67.60
31379;DHT22;61664;48.112;11.662;2022-11-09T03:55:57;9.60;67.50
31379;DHT22;61664;48.112;11.662;2022-11-09T03:58:23;9.60;67.50
31379;DHT22;61664;48.112;11.662;2022-11-09T04:00:50;9.60;67.50
31379;DHT22;61664;48.112;11.662;2022-11-09T04:03:17;9.60;67.50
31379;DHT22;61664;48.112;11.662;2022-11-09T04:05:45;9.60;67.50
31379;DHT22;61664;48.112;11.662;2022-11-09T04:08:12;9.60;67.50
31379;DHT22;61664;48.112;11.662;2022-11-09T04:10:38;9.60;67.50
31379;DHT22;61664;48.112;11.662;2022-11-09T04:13:05;9.60;67.50
31379;DHT22;61664;48.112;11.662;2022-11-09T04:15:32;9.60;67.40
31379;DHT22;61664;48.112;11.662;2022-11-09T04:18:00;9.60;67.40
31379;DHT22;61664;48.112;11.662;2022-11-09T04:20:30;9.60;67.40
31379;DHT22;61664;48.112;11.662;2022-11-09T04:23:00;9.60;67.40
31379;DHT22;61664;48.112;11.662;2022-11-09T04:25:32;9.60;67.30
31379;DHT22;61664;48.112;11.662;2022-11-09T04:27:59;9.60;67.10
31379;DHT22;61664;48.112;11.662;2022-11-09T04:30:29;9.70;66.00
31379;DHT22;61664;48.112;11.662;2022-11-09T04:32:58;9.70;67.60
31379;DHT22;61664;48.112;11.662;2022-11-09T04:35:27;9.60;67.50
31379;DHT22;61664;48.112;11.662;2022-11-09T04:37:58;9.60;67.60
31379;DHT22;61664;48.112;11.662;2022-11-09T04:40:28;9.60;67.60
31379;DHT22;61664;48.112;11.662;2022-11-09T04:43:02;9.60;67.50
31379;DHT22;61664;48.112;11.662;2022-11-09T04:45:32;9.60;67.10
31379;DHT22;61664;48.112;11.662;2022-11-09T04:48:01;9.60;67.60
31379;DHT22;61664;48.112;11.662;2022-11-09T04:50:30;9.60;67.70
31379;DHT22;61664;48.112;11.662;2022-11-09T04:53:12;9.60;67.80
31379;DHT22;61664;48.112;11.662;2022-11-09T04:55:40;9.60;66.10
31379;DHT22;61664;48.112;11.662;2022-11-09T04:58:08;9.60;67.80
31379;DHT22;61664;48.112;11.662;2022-11-09T05:00:35;9.60;67.80
31379;DHT22;61664;48.112;11.662;2022-11-09T05:03:04;9.60;67.70
31379;DHT22;61664;48.112;11.662;2022-11-09T05:05:34;9.60;67.50
31379;DHT22;61664;48.112;11.662;2022-11-09T05:08:03;9.60;67.50
31379;DHT22;61664;48.112;11.662;2022-11-09T05:10:34;9.60;67.50
31379;DHT22;61664;48.112;11.662;2022-11-09T05:13:07;9.50;67.40
31379;DHT22;61664;48.112;11.662;2022-11-09T05:15:36;9.70;67.00
31379;DHT22;61664;48.112;11.662;2022-11-09T05:18:04;9.50;67.40
31379;DHT22;61664;48.112;11.662;2022-11-09T05:20:32;9.50;67.90
31379;DHT22;61664;48.112;11.662;2022-11-09T05:23:01;9.60;67.50
31379;DHT22;61664;48.112;11.662;2022-11-09T05:25:47;9.50;67.50
31379;DHT22;61664;48.112;11.662;2022-11-09T05:28:14;9.50;67.50
31379;DHT22;61664;48.112;11.662;2022-11-09T05:30:41;9.50;67.50
31379;DHT22;61664;48.112;11.662;2022-11-09T05:33:08;9.50;67.50
31379;DHT22;61664;48.112;11.662;2022-11-09T05:35:35;9.50;67.50
31379;DHT22;61664;48.112;11.662;2022-11-09T05:38:02;9.50;67.60
31379;DHT22;61664;48.112;11.662;2022-11-09T05:40:28;9.40;67.50
31379;DHT22;61664;48.112;11.662;2022-11-09T05:42:55;9.40;67.50
31379;DHT22;61664;48.112;11.662;2022-11-09T05:45:22;9.50;67.60
31379;DHT22;61664;48.112;11.662;2022-11-09T05:48:09;9.40;67.50
31379;DHT22;61664;48.112;11.662;2022-11-09T05:50:37;9.40;67.60
31379;DHT22;61664;48.112;11.662;2022-11-09T05:53:05;9.50;67.60
31379;DHT22;61664;48.112;11.662;2022-11-09T05:55:32;9.40;67.50
31379;DHT22;61664;48.112;11.662;2022-11-09T05:57:59;9.40;67.50
31379;DHT22;61664;48.112;11.662;2022-11-09T06:00:27;9.40;67.50
31379;DHT22;61664;48.112;11.662;2022-11-09T06:03:04;9.40;67.50
31379;DHT22;61664;48.112;11.662;2022-11-09T06:05:33;9.40;66.70
31379;DHT22;61664;48.112;11.662;2022-11-09T06:08:06;9.40;67.60
31379;DHT22;61664;48.112;11.662;2022-11-09T06:10:39;9.40;67.10
31379;DHT22;61664;48.112;11.662;2022-11-09T06:13:07;9.40;67.70
31379;DHT22;61664;48.112;11.662;2022-11-09T06:15:34;9.40;67.70
31379;DHT22;61664;48.112;11.662;2022-11-09T06:18:00;9.40;67.80
31379;DHT22;61664;48.112;11.662;2022-11-09T06:20:28;9.40;67.80
31379;DHT22;61664;48.112;11.662;2022-11-09T06:22:58;9.40;67.90
31379;DHT22;61664;48.112;11.662;2022-11-09T06:25:30;9.40;68.00
31379;DHT22;61664;48.112;11.662;2022-11-09T06:27:58;9.40;68.20
31379;DHT22;61664;48.112;11.662;2022-11-09T06:30:25;9.60;68.40
31379;DHT22;61664;48.112;11.662;2022-11-09T06:33:00;9.50;68.40
31379;DHT22;61664;48.112;11.662;2022-11-09T06:35:28;9.60;67.30
31379;DHT22;61664;48.112;11.662;2022-11-09T06:37:58;9.60;68.50
31379;DHT22;61664;48.112;11.662;2022-11-09T06:40:26;9.70;68.60
31379;DHT22;61664;48.112;11.662;2022-11-09T06:42:58;9.70;68.70
31379;DHT22;61664;48.112;11.662;2022-11-09T06:45:27;9.80;68.20
31379;DHT22;61664;48.112;11.662;2022-11-09T06:48:00;10.00;68.90
31379;DHT22;61664;48.112;11.662;2022-11-09T06:50:30;10.00;68.90
31379;DHT22;61664;48.112;11.662;2022-11-09T06:53:04;10.10;68.90
31379;DHT22;61664;48.112;11.662;2022-11-09T06:55:33;10.20;69.00
31379;DHT22;61664;48.112;11.662;2022-11-09T06:58:06;10.40;69.20
31379;DHT22;61664;48.112;11.662;2022-11-09T07:00:36;10.50;68.30
31379;DHT22;61664;48.112;11.662;2022-11-09T07:03:03;10.60;69.00
31379;DHT22;61664;48.112;11.662;2022-11-09T07:05:30;10.70;68.90
31379;DHT22;61664;48.112;11.662;2022-11-09T07:07:57;10.90;69.00
31379;DHT22;61664;48.112;11.662;2022-11-09T07:10:24;11.00;68.90
31379;DHT22;61664;48.112;11.662;2022-11-09T07:12:51;11.20;68.70
31379;DHT22;61664;48.112;11.662;2022-11-09T07:15:18;11.30;68.50
31379;DHT22;61664;48.112;11.662;2022-11-09T07:17:44;11.40;68.40
31379;DHT22;61664;48.112;11.662;2022-11-09T07:20:11;11.50;68.20
31379;DHT22;61664;48.112;11.662;2022-11-09T07:22:40;11.60;67.80
31379;DHT22;61664;48.112;11.662;2022-11-09T07:25:11;11.70;67.60
31379;DHT22;61664;48.112;11.662;2022-11-09T07:27:39;11.80;66.60
31379;DHT22;61664;48.112;11.662;2022-11-09T07:30:07;11.90;66.70
31379;DHT22;61664;48.112;11.662;2022-11-09T07:32:35;11.90;66.30
31379;DHT22;61664;48.112;11.662;2022-11-09T07:35:23;12.00;65.90
31379;DHT22;61664;48.112;11.662;2022-11-09T07:37:50;12.10;65.90
31379;DHT22;61664;48.112;11.662;2022-11-09T07:40:17;12.10;65.30
31379;DHT22;61664;48.112;11.662;2022-11-09T07:42:44;12.20;65.40
31379;DHT22;61664;48.112;11.662;2022-11-09T07:45:11;12.30;65.30
31379;DHT22;61664;48.112;11.662;2022-11-09T07:47:38;12.30;65.00
31379;DHT22;61664;48.112;11.662;2022-11-09T07:50:05;12.40;65.10
31379;DHT22;61664;48.112;11.662;2022-11-09T07:52:32;12.40;65.10
31379;DHT22;61664;48.112;11.662;2022-11-09T07:54:59;12.50;65.20
31379;DHT22;61664;48.112;11.662;2022-11-09T07:57:26;12.60;65.20
31379;DHT22;61664;48.112;11.662;2022-11-09T07:59:53;12.70;65.20
31379;DHT22;61664;48.112;11.662;2022-11-09T08:02:20;12.80;65.10
31379;DHT22;61664;48.112;11.662;2022-11-09T08:04:47;12.80;64.90
31379;DHT22;61664;48.112;11.662;2022-11-09T08:07:14;12.90;64.90
31379;DHT22;61664;48.112;11.662;2022-11-09T08:09:41;13.00;65.00
31379;DHT22;61664;48.112;11.662;2022-11-09T08:12:08;13.10;64.90
31379;DHT22;61664;48.112;11.662;2022-11-09T08:14:34;13.20;65.00
31379;DHT22;61664;48.112;11.662;2022-11-09T08:17:01;13.30;65.00
31379;DHT22;61664;48.112;11.662;2022-11-09T08:19:28;13.40;65.20
31379;DHT22;61664;48.112;11.662;2022-11-09T08:21:55;13.50;65.50
31379;DHT22;61664;48.112;11.662;2022-11-09T08:24:23;13.70;65.70
31379;DHT22;61664;48.112;11.662;2022-11-09T08:26:50;13.90;66.00
31379;DHT22;61664;48.112;11.662;2022-11-09T08:29:17;14.10;65.90
31379;DHT22;61664;48.112;11.662;2022-11-09T08:31:44;14.40;65.70
31379;DHT22;61664;48.112;11.662;2022-11-09T08:34:12;14.60;65.30
31379;DHT22;61664;48.112;11.662;2022-11-09T08:36:41;14.80;64.70
31379;DHT22;61664;48.112;11.662;2022-11-09T08:39:09;15.00;64.60
31379;DHT22;61664;48.112;11.662;2022-11-09T08:41:36;15.10;64.00
31379;DHT22;61664;48.112;11.662;2022-11-09T08:44:03;15.30;63.80
31379;DHT22;61664;48.112;11.662;2022-11-09T08:46:30;15.40;63.60
31379;DHT22;61664;48.112;11.662;2022-11-09T08:48:57;15.50;63.50
31379;DHT22;61664;48.112;11.662;2022-11-09T08:51:26;15.60;63.30
31379;DHT22;61664;48.112;11.662;2022-11-09T08:53:53;15.80;63.50
31379;DHT22;61664;48.112;11.662;2022-11-09T08:56:20;16.00;63.20
31379;DHT22;61664;48.112;11.662;2022-11-09T08:58:47;16.20;62.60
31379;DHT22;61664;48.112;11.662;2022-11-09T09:01:14;16.30;61.10
31379;DHT22;61664;48.112;11.662;2022-11-09T09:03:43;16.50;60.00
31379;DHT22;61664;48.112;11.662;2022-11-09T09:06:10;16.50;59.90
31379;DHT22;61664;48.112;11.662;2022-11-09T09:08:37;16.60;59.90
31379;DHT22;61664;48.112;11.662;2022-11-09T09:11:05;16.60;59.60
31379;DHT22;61664;48.112;11.662;2022-11-09T09:13:32;16.60;59.20
31379;DHT22;61664;48.112;11.662;2022-11-09T09:16:13;16.60;59.10
31379;DHT22;61664;48.112;11.662;2022-11-09T09:18:41;16.50;57.60
31379;DHT22;61664;48.112;11.662;2022-11-09T09:21:09;16.40;59.40
31379;DHT22;61664;48.112;11.662;2022-11-09T09:23:36;16.40;59.60
31379;DHT22;61664;48.112;11.662;2022-11-09T09:26:03;16.40;59.70
31379;DHT22;61664;48.112;11.662;2022-11-09T09:28:31;16.40;59.90
31379;DHT22;61664;48.112;11.662;2022-11-09T09:30:59;16.40;60.10
31379;DHT22;61664;48.112;11.662;2022-11-09T09:33:27;16.40;60.10
31379;DHT22;61664;48.112;11.662;2022-11-09T09:35:55;16.40;60.10
31379;DHT22;61664;48.112;11.662;2022-11-09T09:38:24;16.40;60.10
31379;DHT22;61664;48.112;11.662;2022-11-09T09:41:02;16.50;60.50
31379;DHT22;61664;48.112;11.662;2022-11-09T09:43:41;16.50;60.70
31379;DHT22;61664;48.112;11.662;2022-11-09T09:46:31;16.60;61.00
31379;DHT22;61664;48.112;11.662;2022-11-09T09:49:06;16.70;58.60
31379;DHT22;61664;48.112;11.662;2022-11-09T09:51:44;16.80;60.70
31379;DHT22;61664;48.112;11.662;2022-11-09T09:54:21;16.90;60.80
31379;DHT22;61664;48.112;11.662;2022-11-09T09:56:53;17.00;59.90
31379;DHT22;61664;48.112;11.662;2022-11-09T09:59:41;17.00;60.50
31379;DHT22;61664;48.112;11.662;2022-11-09T10:02:25;17.10;59.00
31379;DHT22;61664;48.112;11.662;2022-11-09T10:04:59;17.10;58.10
31379;DHT22;61664;48.112;11.662;2022-11-09T10:07:37;17.20;60.70
31379;DHT22;61664;48.112;11.662;2022-11-09T10:10:39;17.20;60.80
31379;DHT22;61664;48.112;11.662;2022-11-09T10:13:58;17.30;57.70
31379;DHT22;61664;48.112;11.662;2022-11-09T10:16:49;17.40;57.80
31379;DHT22;61664;48.112;11.662;2022-11-09T10:25:42;17.70;59.00
31379;DHT22;61664;48.112;11.662;2022-11-09T10:28:36;17.90;60.60
31379;DHT22;61664;48.112;11.662;2022-11-09T10:31:31;18.00;58.30
31379;DHT22;61664;48.112;11.662;2022-11-09T10:34:07;18.00;59.10
31379;DHT22;61664;48.112;11.662;2022-11-09T10:42:49;18.20;58.80
31379;DHT22;61664;48.112;11.662;2022-11-09T10:47:52;18.30;56.70
31379;DHT22;61664;48.112;11.662;2022-11-09T10:53:32;18.40;57.10
31379;DHT22;61664;48.112;11.662;2022-11-09T10:56:17;18.40;56.80
31379;DHT22;61664;48.112;11.662;2022-11-09T10:58:50;18.50;56.10
31379;DHT22;61664;48.112;11.662;2022-11-09T11:01:27;18.50;58.60
31379;DHT22;61664;48.112;11.662;2022-11-09T11:04:19;18.50;57.30
31379;DHT22;61664;48.112;11.662;2022-11-09T11:06:49;18.50;56.60
31379;DHT22;61664;48.112;11.662;2022-11-09T11:09:19;18.50;59.30
31379;DHT22;61664;48.112;11.662;2022-11-09T11:11:46;18.60;58.40
31379;DHT22;61664;48.112;11.662;2022-11-09T11:14:22;18.70;60.00
31379;DHT22;61664;48.112;11.662;2022-11-09T11:16:51;18.90;57.60
31379;DHT22;61664;48.112;11.662;2022-11-09T11:19:33;19.10;59.80
31379;DHT22;61664;48.112;11.662;2022-11-09T11:24:55;19.50;55.80
31379;DHT22;61664;48.112;11.662;2022-11-09T11:30:27;19.90;59.20
31379;DHT22;61664;48.112;11.662;2022-11-09T11:32:57;20.10;57.10
31379;DHT22;61664;48.112;11.662;2022-11-09T11:35:35;20.20;58.50
31379;DHT22;61664;48.112;11.662;2022-11-09T11:52:14;20.50;52.00
31379;DHT22;61664;48.112;11.662;2022-11-09T11:55:24;20.40;54.90
31379;DHT22;61664;48.112;11.662;2022-11-09T11:58:01;20.30;54.80
31379;DHT22;61664;48.112;11.662;2022-11-09T12:04:33;20.20;54.90
31379;DHT22;61664;48.112;11.662;2022-11-09T12:24:56;20.20;54.10
31379;DHT22;61664;48.112;11.662;2022-11-09T12:30:18;20.30;51.40
31379;DHT22;61664;48.112;11.662;2022-11-09T12:32:52;20.30;53.60
31379;DHT22;61664;48.112;11.662;2022-11-09T12:38:25;20.40;55.20
31379;DHT22;61664;48.112;11.662;2022-11-09T12:41:12;20.50;52.70
31379;DHT22;61664;48.112;11.662;2022-11-09T12:43:59;20.50;50.90
31379;DHT22;61664;48.112;11.662;2022-11-09T12:46:48;20.60;51.10
31379;DHT22;61664;48.112;11.662;2022-11-09T12:49:34;20.60;50.50
31379;DHT22;61664;48.112;11.662;2022-11-09T12:52:07;20.60;51.20
31379;DHT22;61664;48.112;11.662;2022-11-09T12:54:41;20.60;54.30
31379;DHT22;61664;48.112;11.662;2022-11-09T12:57:20;20.60;54.10
31379;DHT22;61664;48.112;11.662;2022-11-09T12:59:54;20.60;54.10
31379;DHT22;61664;48.112;11.662;2022-11-09T13:02:35;20.60;55.10
31379;DHT22;61664;48.112;11.662;2022-11-09T13:05:06;20.60;54.20
31379;DHT22;61664;48.112;11.662;2022-11-09T13:08:04;20.70;55.50
31379;DHT22;61664;48.112;11.662;2022-11-09T13:10:38;20.80;55.70
31379;DHT22;61664;48.112;11.662;2022-11-09T13:18:46;20.80;52.70
31379;DHT22;61664;48.112;11.662;2022-11-09T13:23:50;20.90;54.60
31379;DHT22;61664;48.112;11.662;2022-11-09T13:34:47;21.10;52.10
31379;DHT22;61664;48.112;11.662;2022-11-09T13:37:44;21.10;52.90
31379;DHT22;61664;48.112;11.662;2022-11-09T13:51:59;21.30;51.90
31379;DHT22;61664;48.112;11.662;2022-11-09T13:54:23;21.40;53.80
31379;DHT22;61664;48.112;11.662;2022-11-09T13:56:55;21.40;54.20
31379;DHT22;61664;48.112;11.662;2022-11-09T13:59:40;21.40;54.80
31379;DHT22;61664;48.112;11.662;2022-11-09T14:02:21;21.40;52.40
31379;DHT22;61664;48.112;11.662;2022-11-09T14:04:50;21.40;52.80
31379;DHT22;61664;48.112;11.662;2022-11-09T14:07:30;21.40;55.10
31379;DHT22;61664;48.112;11.662;2022-11-09T14:10:11;21.30;53.20
31379;DHT22;61664;48.112;11.662;2022-11-09T14:15:48;21.30;52.30
31379;DHT22;61664;48.112;11.662;2022-11-09T14:24:22;21.30;52.70
31379;DHT22;61664;48.112;11.662;2022-11-09T14:29:30;21.30;54.40
31379;DHT22;61664;48.112;11.662;2022-11-09T14:32:00;21.30;55.30
31379;DHT22;61664;48.112;11.662;2022-11-09T14:34:46;21.20;55.10
31379;DHT22;61664;48.112;11.662;2022-11-09T14:37:13;21.10;55.30
31379;DHT22;61664;48.112;11.662;2022-11-09T14:39:41;21.00;55.40
31379;DHT22;61664;48.112;11.662;2022-11-09T14:42:16;20.90;55.30
31379;DHT22;61664;48.112;11.662;2022-11-09T14:44:46;20.80;54.10
31379;DHT22;61664;48.112;11.662;2022-11-09T14:47:33;20.80;55.80
31379;DHT22;61664;48.112;11.662;2022-11-09T14:50:02;20.60;53.30
31379;DHT22;61664;48.112;11.662;2022-11-09T14:52:30;20.50;56.10
31379;DHT22;61664;48.112;11.662;2022-11-09T14:54:57;20.40;56.30
31379;DHT22;61664;48.112;11.662;2022-11-09T14:57:24;20.30;56.60
31379;DHT22;61664;48.112;11.662;2022-11-09T14:59:52;20.20;57.10
31379;DHT22;61664;48.112;11.662;2022-11-09T15:02:21;20.10;56.30
31379;DHT22;61664;48.112;11.662;2022-11-09T15:04:54;20.00;56.40
31379;DHT22;61664;48.112;11.662;2022-11-09T15:07:31;19.90;56.70
31379;DHT22;61664;48.112;11.662;2022-11-09T15:10:03;19.80;56.50
31379;DHT22;61664;48.112;11.662;2022-11-09T15:12:32;19.70;56.50
31379;DHT22;61664;48.112;11.662;2022-11-09T15:15:05;19.60;56.90
31379;DHT22;61664;48.112;11.662;2022-11-09T15:17:35;19.50;56.50
31379;DHT22;61664;48.112;11.662;2022-11-09T15:20:25;19.40;56.80
31379;DHT22;61664;48.112;11.662;2022-11-09T15:23:19;19.30;55.50
31379;DHT22;61664;48.112;11.662;2022-11-09T15:28:26;19.10;57.80
31379;DHT22;61664;48.112;11.662;2022-11-09T15:33:27;18.90;57.90
31379;DHT22;61664;48.112;11.662;2022-11-09T15:35:56;18.80;57.00
31379;DHT22;61664;48.112;11.662;2022-11-09T15:38:54;18.70;58.30
31379;DHT22;61664;48.112;11.662;2022-11-09T15:41:24;18.70;56.70
31379;DHT22;61664;48.112;11.662;2022-11-09T15:43:51;18.60;58.40
31379;DHT22;61664;48.112;11.662;2022-11-09T15:51:48;18.30;56.50
31379;DHT22;61664;48.112;11.662;2022-11-09T15:54:15;18.20;58.80
31379;DHT22;61664;48.112;11.662;2022-11-09T15:56:43;18.20;58.80
31379;DHT22;61664;48.112;11.662;2022-11-09T15:59:20;18.10;58.90
31379;DHT22;61664;48.112;11.662;2022-11-09T16:01:49;18.00;57.80
31379;DHT22;61664;48.112;11.662;2022-11-09T16:04:16;17.90;59.20
31379;DHT22;61664;48.112;11.662;2022-11-09T16:06:43;17.80;59.40
31379;DHT22;61664;48.112;11.662;2022-11-09T16:09:13;17.80;59.60
31379;DHT22;61664;48.112;11.662;2022-11-09T16:11:41;17.70;59.60
31379;DHT22;61664;48.112;11.662;2022-11-09T16:14:08;17.60;59.80
31379;DHT22;61664;48.112;11.662;2022-11-09T16:16:34;17.50;59.90
31379;DHT22;61664;48.112;11.662;2022-11-09T16:19:01;17.50;60.20
31379;DHT22;61664;48.112;11.662;2022-11-09T16:21:28;17.40;60.20
31379;DHT22;61664;48.112;11.662;2022-11-09T16:23:55;17.40;60.40
31379;DHT22;61664;48.112;11.662;2022-11-09T16:26:24;17.30;60.40
31379;DHT22;61664;48.112;11.662;2022-11-09T16:28:52;17.30;60.70
31379;DHT22;61664;48.112;11.662;2022-11-09T16:31:20;17.20;60.80
31379;DHT22;61664;48.112;11.662;2022-11-09T16:34:07;17.20;61.00
31379;DHT22;61664;48.112;11.662;2022-11-09T16:36:34;17.10;61.30
31379;DHT22;61664;48.112;11.662;2022-11-09T16:39:05;17.10;61.40
31379;DHT22;61664;48.112;11.662;2022-11-09T16:41:39;17.10;59.80
31379;DHT22;61664;48.112;11.662;2022-11-09T16:44:07;17.00;61.40
31379;DHT22;61664;48.112;11.662;2022-11-09T16:46:34;16.90;61.70
31379;DHT22;61664;48.112;11.662;2022-11-09T16:49:01;16.90;61.80
31379;DHT22;61664;48.112;11.662;2022-11-09T16:51:29;16.80;62.00
31379;DHT22;61664;48.112;11.662;2022-11-09T16:53:56;16.80;62.20
31379;DHT22;61664;48.112;11.662;2022-11-09T16:56:23;16.70;62.20
31379;DHT22;61664;48.112;11.662;2022-11-09T16:58:51;16.70;62.40
31379;DHT22;61664;48.112;11.662;2022-11-09T17:01:18;16.70;62.30
31379;DHT22;61664;48.112;11.662;2022-11-09T17:03:49;16.60;62.40
31379;DHT22;61664;48.112;11.662;2022-11-09T17:06:16;16.60;62.50
31379;DHT22;61664;48.112;11.662;2022-11-09T17:08:43;16.60;62.70
31379;DHT22;61664;48.112;11.662;2022-11-09T17:11:13;16.60;62.70
31379;DHT22;61664;48.112;11.662;2022-11-09T17:13:41;16.50;62.70
31379;DHT22;61664;48.112;11.662;2022-11-09T17:16:10;16.50;62.90
31379;DHT22;61664;48.112;11.662;2022-11-09T17:18:38;16.50;63.00
31379;DHT22;61664;48.112;11.662;2022-11-09T17:21:12;16.40;63.00
31379;DHT22;61664;48.112;11.662;2022-11-09T17:23:41;16.40;62.40
31379;DHT22;61664;48.112;11.662;2022-11-09T17:26:08;16.40;63.10
31379;DHT22;61664;48.112;11.662;2022-11-09T17:28:36;16.30;63.10
31379;DHT22;61664;48.112;11.662;2022-11-09T17:31:17;16.30;63.30
31379;DHT22;61664;48.112;11.662;2022-11-09T17:33:45;16.30;62.80
31379;DHT22;61664;48.112;11.662;2022-11-09T17:36:14;16.20;63.50
31379;DHT22;61664;48.112;11.662;2022-11-09T17:39:03;16.20;63.50
31379;DHT22;61664;48.112;11.662;2022-11-09T17:41:31;16.30;63.80